Time;durP1;ratioP1;P1;durP2;ratioP2;P2;SDS_P1;SDS_P2;PMS_P1;PMS_P2;Temp;Humidity;BMP_temperature;BMP_pressure;BME280_temperature;BME280_humidity;BME280_pressure;Samples;Min_cycle;Max_cycle;Signal;HPM_P1;HPM_P2
2022/02/10 00:20:20;;;;;;;0.80;0.80;;;8.50;99.90;;;;;;4991459;28;20237;-88
2022/02/10 00:34:07;;;;;;;2.37;0.87;;;8.60;99.90;;;;;;4997222;28;20658;-88
2022/02/10 00:34:12;;;;;;;1.50;0.80;;;8.60;99.90;;;;;;4997233;28;20223;-87
2022/02/10 00:41:59;;;;;;;0.80;0.80;;;8.60;99.90;;;;;;4995649;28;20247;-86
2022/02/10 00:44:25;;;;;;;0.53;0.47;;;8.60;99.90;;;;;;4997100;28;20235;-88
2022/02/10 00:46:51;;;;;;;1.57;0.80;;;8.60;99.90;;;;;;4970994;28;20200;-89
2022/02/10 00:49:17;;;;;;;0.37;0.37;;;8.60;99.90;;;;;;4995320;28;20207;-90
2022/02/10 00:51:43;;;;;;;4.97;0.90;;;8.60;99.90;;;;;;4993460;28;21561;-87
2022/02/10 00:54:10;;;;;;;1.07;0.80;;;8.60;99.90;;;;;;4995056;28;20949;-87
2022/02/10 00:56:36;;;;;;;1.37;1.27;;;8.60;99.90;;;;;;4995654;28;20219;-87
2022/02/10 00:59:27;;;;;;;0.97;0.60;;;8.70;99.90;;;;;;4998902;28;20311;-88
2022/02/10 01:10:36;;;;;;;0.70;0.70;;;8.70;99.90;;;;;;5000728;28;20211;-90
2022/02/10 01:29:47;;;;;;;3.00;0.70;;;8.60;99.90;;;;;;4984942;28;20230;-90
2022/02/10 01:32:15;;;;;;;1.33;1.03;;;8.60;99.90;;;;;;4978721;28;20224;-87
2022/02/10 01:34:51;;;;;;;1.57;1.47;;;8.60;99.90;;;;;;4996716;28;20207;-88
2022/02/10 01:37:18;;;;;;;2.43;1.27;;;8.70;99.90;;;;;;4998774;28;20274;-86
2022/02/10 01:39:55;;;;;;;1.13;0.93;;;8.70;99.90;;;;;;4990800;28;20302;-87
2022/02/10 02:03:56;;;;;;;1.47;1.13;;;8.60;99.90;;;;;;4985562;28;20317;-87
2022/02/10 02:06:29;;;;;;;1.70;1.57;;;8.60;99.90;;;;;;4997413;28;20251;-86
2022/02/10 02:08:58;;;;;;;2.20;1.73;;;8.60;99.90;;;;;;4998361;28;20581;-88
2022/02/10 02:11:27;;;;;;;1.37;1.27;;;8.70;99.90;;;;;;4984808;28;20990;-90
2022/02/10 02:13:54;;;;;;;1.77;1.10;;;8.60;99.90;;;;;;4998310;28;20209;-87
2022/02/10 02:16:20;;;;;;;1.93;1.23;;;8.60;99.90;;;;;;5000064;28;20184;-86
2022/02/10 02:18:45;;;;;;;1.80;1.43;;;8.70;99.90;;;;;;4998708;28;20234;-87
2022/02/10 02:21:18;;;;;;;2.50;2.10;;;8.60;99.90;;;;;;4988940;28;20233;-87
2022/02/10 02:23:44;;;;;;;1.17;0.90;;;8.60;99.90;;;;;;4998476;28;20234;-88
2022/02/10 02:26:14;;;;;;;1.77;1.07;;;8.70;99.90;;;;;;5000637;28;20219;-88
2022/02/10 02:28:45;;;;;;;1.67;1.53;;;8.60;99.90;;;;;;4998119;28;21054;-87
2022/02/10 02:31:16;;;;;;;1.87;0.83;;;8.70;99.90;;;;;;4997019;28;20223;-87
2022/02/10 03:08:49;;;;;;;1.30;1.20;;;8.60;99.90;;;;;;4996698;28;20217;-87
2022/02/10 03:11:16;;;;;;;14.23;2.50;;;8.60;99.90;;;;;;4997336;28;20690;-85
2022/02/10 03:13:59;;;;;;;2.03;1.80;;;8.50;99.90;;;;;;4998268;28;20195;-85
2022/02/10 04:13:08;;;;;;;1.70;1.60;;;8.40;99.90;;;;;;4982996;28;20235;-88
2022/02/10 04:15:55;;;;;;;3.77;2.90;;;8.30;99.90;;;;;;4996394;28;20230;-88
2022/02/10 04:24:21;;;;;;;3.87;2.13;;;8.30;99.90;;;;;;4993005;28;20231;-87
2022/02/10 04:26:35;;;;;;;2.80;0.93;;;8.30;99.90;;;;;;4986990;28;20222;-88
2022/02/10 04:37:48;;;;;;;2.80;2.27;;;8.30;99.90;;;;;;4995323;28;20318;-87
2022/02/10 05:33:56;;;;;;;1.77;1.67;;;8.10;99.90;;;;;;4995289;28;20313;-91
2022/02/10 05:36:25;;;;;;;3.03;1.67;;;8.10;99.90;;;;;;4987603;28;20222;-92
2022/02/10 05:49:39;;;;;;;0.60;0.57;;;7.90;99.90;;;;;;4996745;28;21125;-91
2022/02/10 05:58:06;;;;;;;1.37;1.20;;;7.80;99.90;;;;;;4995513;28;20295;-92
2022/02/10 06:55:09;;;;;;;0.20;0.20;;;7.50;99.90;;;;;;4982497;28;20235;-92
2022/02/10 07:03:28;;;;;;;0.40;0.40;;;7.50;99.90;;;;;;4996607;28;20317;-92
2022/02/10 07:06:08;;;;;;;0.10;0.10;;;7.50;99.90;;;;;;4985820;28;20220;-91
2022/02/10 07:09:01;;;;;;;0.57;0.57;;;7.50;99.90;;;;;;4982830;28;20219;-93
2022/02/10 07:12:08;;;;;;;0.50;0.50;;;7.50;99.90;;;;;;4998279;28;20227;-88
2022/02/10 07:55:57;;;;;;;0.30;0.30;;;8.00;99.90;;;;;;5000272;28;20222;-94
2022/02/10 09:14:31;;;;;;;0.20;0.20;;;8.60;99.90;;;;;;4994499;28;20636;-89
2022/02/10 09:17:19;;;;;;;1.57;0.97;;;8.60;99.90;;;;;;4981561;28;20184;-88
2022/02/10 10:03:28;;;;;;;0.93;0.60;;;9.40;99.90;;;;;;4996837;28;20263;-89
2022/02/10 10:06:09;;;;;;;1.43;0.73;;;9.50;99.90;;;;;;4979484;28;20219;-89
2022/02/10 10:14:23;;;;;;;1.33;0.40;;;9.70;99.90;;;;;;4996739;28;20258;-86
2022/02/10 10:19:58;;;;;;;0.40;0.30;;;9.80;99.90;;;;;;4986053;28;20207;-89
2022/02/10 10:56:14;;;;;;;1.00;0.57;;;9.40;99.90;;;;;;4986238;28;20230;-89
2022/02/10 11:07:43;;;;;;;0.80;0.80;;;9.50;99.90;;;;;;4999517;28;20231;-87
2022/02/10 11:38:13;;;;;;;0.43;0.43;;;9.60;99.90;;;;;;4996712;28;20574;-87
2022/02/10 11:43:43;;;;;;;1.70;0.80;;;9.60;99.90;;;;;;4998422;28;20702;-89
2022/02/10 14:25:45;;;;;;;2.77;0.47;;;8.50;99.90;;;;;;5000291;28;20223;-88
2022/02/10 14:28:11;;;;;;;0.20;0.20;;;8.50;99.90;;;;;;4981906;28;20637;-90
2022/02/10 14:30:38;;;;;;;0.20;0.20;;;8.30;99.90;;;;;;4988250;28;20691;-89
2022/02/10 14:33:04;;;;;;;1.67;1.27;;;8.40;99.90;;;;;;4998311;28;20227;-88
2022/02/10 14:35:39;;;;;;;0.50;0.47;;;8.30;99.90;;;;;;4982215;28;20606;-88
2022/02/10 14:38:18;;;;;;;1.90;1.27;;;8.30;99.90;;;;;;4974099;28;20235;-89
2022/02/10 15:32:37;;;;;;;4.63;1.80;;;7.80;99.90;;;;;;5003821;28;20211;-88
2022/02/10 16:18:05;;;;;;;0.70;0.70;;;7.20;99.90;;;;;;4997434;28;20234;-88
2022/02/10 16:20:32;;;;;;;0.30;0.30;;;7.20;99.90;;;;;;4977874;28;20231;-88
2022/02/10 16:23:15;;;;;;;0.60;0.60;;;7.10;99.90;;;;;;4976490;28;20206;-89
2022/02/10 16:25:48;;;;;;;1.13;0.90;;;7.00;99.90;;;;;;4978137;28;20208;-85
2022/02/10 16:28:30;;;;;;;0.50;0.50;;;7.00;99.90;;;;;;4978904;28;20319;-86
2022/02/10 16:30:56;;;;;;;1.50;0.77;;;7.00;99.90;;;;;;4987286;28;20720;-90
2022/02/10 16:33:21;;;;;;;0.60;0.60;;;6.90;99.90;;;;;;4995454;28;20254;-91
2022/02/10 16:35:47;;;;;;;0.93;0.93;;;6.90;99.90;;;;;;4971366;28;20668;-88
2022/02/10 16:38:13;;;;;;;8.03;1.27;;;6.90;99.90;;;;;;4998394;28;20214;-88
2022/02/10 16:40:40;;;;;;;0.67;0.67;;;6.90;99.90;;;;;;4995385;28;20247;-86
2022/02/10 16:43:06;;;;;;;4.27;0.73;;;6.80;99.90;;;;;;4995025;28;20216;-88
2022/02/10 16:45:32;;;;;;;1.67;0.53;;;6.80;99.90;;;;;;4979287;28;20230;-88
2022/02/10 16:47:58;;;;;;;0.93;0.67;;;6.80;99.90;;;;;;4994696;28;20277;-91
2022/02/10 16:50:24;;;;;;;3.13;0.70;;;6.80;99.90;;;;;;4978361;28;20215;-88
2022/02/10 16:53:11;;;;;;;0.43;0.43;;;6.70;99.90;;;;;;4995274;28;20202;-89
2022/02/10 17:19:02;;;;;;;0.87;0.87;;;6.70;99.90;;;;;;4977961;28;20223;-89
2022/02/10 17:27:07;;;;;;;0.63;0.63;;;6.80;99.90;;;;;;4992749;28;20235;-89
2022/02/10 17:32:48;;;;;;;0.50;0.50;;;6.70;99.90;;;;;;4976363;28;20247;-88
2022/02/10 17:35:44;;;;;;;1.13;0.70;;;6.70;99.90;;;;;;4995665;28;20234;-88
2022/02/10 17:46:20;;;;;;;2.10;0.80;;;6.60;99.90;;;;;;4998768;28;20225;-86
2022/02/10 17:54:01;;;;;;;0.57;0.50;;;6.60;99.90;;;;;;4999803;28;20244;-88
2022/02/10 17:56:29;;;;;;;1.13;1.07;;;6.50;99.90;;;;;;4997931;28;20293;-85
2022/02/10 17:58:55;;;;;;;0.90;0.90;;;6.60;99.90;;;;;;4989833;28;20204;-85
2022/02/10 18:01:21;;;;;;;1.83;1.73;;;6.50;99.90;;;;;;4999214;28;20199;-85
2022/02/10 18:03:47;;;;;;;2.03;0.50;;;6.50;99.90;;;;;;4999227;28;20306;-86
2022/02/10 18:08:48;;;;;;;0.23;0.23;;;6.50;99.90;;;;;;5000449;28;20235;-86
2022/02/10 18:13:51;;;;;;;0.50;0.50;;;6.60;99.90;;;;;;4983140;28;20655;-86
2022/02/10 18:16:25;;;;;;;1.30;0.40;;;6.60;99.90;;;;;;4998996;28;20180;-87
2022/02/10 18:18:55;;;;;;;1.27;0.80;;;6.60;99.90;;;;;;4999507;28;20219;-86
2022/02/10 18:21:34;;;;;;;1.17;1.10;;;6.60;99.90;;;;;;4998335;28;21161;-87
2022/02/10 18:24:08;;;;;;;1.40;1.30;;;6.50;99.90;;;;;;4983206;28;20235;-87
2022/02/10 18:29:18;;;;;;;3.00;1.80;;;6.50;99.90;;;;;;4998016;28;20221;-89
2022/02/10 19:07:33;;;;;;;0.40;0.40;;;6.30;99.90;;;;;;4981117;28;20243;-89
2022/02/10 19:09:59;;;;;;;2.40;2.13;;;6.30;99.90;;;;;;4996894;28;20223;-90
2022/02/10 19:12:29;;;;;;;0.63;0.63;;;6.20;99.90;;;;;;4988305;28;20312;-90
2022/02/10 19:15:09;;;;;;;0.83;0.60;;;6.20;99.90;;;;;;4988063;28;20224;-90
2022/02/10 19:17:36;;;;;;;3.17;1.80;;;6.20;99.90;;;;;;4975102;28;20325;-89
2022/02/10 19:20:03;;;;;;;0.63;0.63;;;6.10;99.90;;;;;;4996692;28;20250;-90
2022/02/10 19:22:29;;;;;;;0.40;0.40;;;6.10;99.90;;;;;;4998068;28;20183;-90
2022/02/10 19:24:54;;;;;;;0.83;0.70;;;6.10;99.90;;;;;;4996906;28;20228;-90
2022/02/10 19:27:22;;;;;;;2.93;1.13;;;6.10;99.90;;;;;;4996208;28;20219;-90
2022/02/10 19:29:49;;;;;;;1.73;1.30;;;6.00;99.90;;;;;;4989283;28;20223;-89
2022/02/10 19:32:17;;;;;;;5.60;1.07;;;6.10;99.90;;;;;;4994943;28;20593;-88
2022/02/10 19:34:47;;;;;;;0.73;0.63;;;6.10;99.90;;;;;;4987226;28;20196;-87
2022/02/10 19:37:16;;;;;;;2.27;0.73;;;6.10;99.90;;;;;;4987636;28;20726;-88
2022/02/10 19:39:45;;;;;;;0.93;0.40;;;6.10;99.90;;;;;;4997209;28;20273;-88
2022/02/10 19:42:11;;;;;;;11.03;0.73;;;6.00;99.90;;;;;;4996926;28;20216;-89
2022/02/10 19:44:38;;;;;;;0.47;0.47;;;6.00;99.90;;;;;;4995604;28;20239;-88
2022/02/10 19:47:04;;;;;;;0.43;0.43;;;6.00;99.90;;;;;;4997012;28;20282;-89
2022/02/10 19:49:31;;;;;;;0.40;0.40;;;6.00;99.90;;;;;;4996523;28;20315;-88
2022/02/10 19:51:57;;;;;;;0.47;0.47;;;5.90;99.90;;;;;;4996245;28;20307;-91
2022/02/10 19:54:29;;;;;;;2.53;1.37;;;5.90;99.90;;;;;;4997486;28;20374;-89
2022/02/10 19:56:58;;;;;;;1.10;1.00;;;5.90;99.90;;;;;;4988606;28;20313;-90
2022/02/10 19:59:27;;;;;;;3.03;2.17;;;5.90;99.90;;;;;;4979569;28;20288;-88
2022/02/10 20:01:53;;;;;;;1.00;1.00;;;5.80;99.90;;;;;;4996940;28;20258;-91
2022/02/10 20:04:25;;;;;;;0.30;0.30;;;5.80;99.90;;;;;;4995255;28;20208;-88
2022/02/10 20:06:57;;;;;;;2.87;1.33;;;5.80;99.90;;;;;;4995771;28;20251;-87
2022/02/10 20:09:24;;;;;;;3.50;1.30;;;5.80;99.90;;;;;;4994358;28;20232;-88
2022/02/10 20:11:51;;;;;;;2.87;1.83;;;5.80;99.90;;;;;;4996649;28;20224;-90
2022/02/10 20:14:21;;;;;;;0.80;0.80;;;5.80;99.90;;;;;;4997138;28;20219;-90
2022/02/10 20:16:51;;;;;;;1.60;1.40;;;5.80;99.90;;;;;;4995024;28;20218;-89
2022/02/10 20:19:17;;;;;;;1.10;0.90;;;5.80;99.90;;;;;;4996014;28;21009;-90
2022/02/10 20:21:51;;;;;;;1.40;1.40;;;5.80;99.90;;;;;;5001444;28;20250;-91
2022/02/10 20:24:18;;;;;;;1.03;1.03;;;5.90;99.90;;;;;;4988619;28;20998;-90
2022/02/10 20:26:44;;;;;;;1.07;0.83;;;5.90;99.90;;;;;;4978792;28;20230;-91
2022/02/10 20:29:11;;;;;;;2.03;1.17;;;5.90;99.90;;;;;;4989458;28;20215;-89
2022/02/10 20:31:41;;;;;;;1.77;1.30;;;5.90;99.90;;;;;;4996853;28;20232;-92
2022/02/10 20:34:12;;;;;;;2.30;0.63;;;5.90;99.90;;;;;;4997910;28;20215;-91
2022/02/10 20:36:38;;;;;;;5.70;2.07;;;5.80;99.90;;;;;;4993193;28;20215;-91
2022/02/10 20:39:08;;;;;;;1.97;1.90;;;5.80;99.90;;;;;;4996505;28;20277;-90
2022/02/10 20:41:35;;;;;;;1.03;1.03;;;5.80;99.90;;;;;;4986571;28;20382;-91
2022/02/10 20:44:02;;;;;;;2.73;0.60;;;5.80;99.90;;;;;;4987424;28;20236;-89
2022/02/10 20:46:41;;;;;;;;;;;;;;;;;;;;;
2022/02/10 20:49:15;;;;;;;6.10;2.13;;;5.80;99.90;;;;;;4996948;28;20211;-90
2022/02/10 20:51:41;;;;;;;0.80;0.80;;;5.80;99.90;;;;;;4981958;28;20227;-92
2022/02/10 20:54:07;;;;;;;0.40;0.40;;;5.80;99.90;;;;;;4996522;28;20226;-91
2022/02/10 20:56:35;;;;;;;0.30;0.30;;;5.80;99.90;;;;;;4972118;28;20647;-90
2022/02/10 20:59:08;;;;;;;0.80;0.43;;;5.70;99.90;;;;;;4979557;28;21067;-91
2022/02/10 21:01:35;;;;;;;2.20;1.63;;;5.80;99.90;;;;;;4994850;28;20191;-90
2022/02/10 21:04:02;;;;;;;1.17;1.07;;;5.70;99.90;;;;;;4995463;28;20286;-91
2022/02/10 21:06:54;;;;;;;0.50;0.30;;;5.70;99.90;;;;;;4986926;28;20211;-88
2022/02/10 21:09:34;;;;;;;2.13;1.93;;;5.70;99.90;;;;;;4981952;28;20310;-92
2022/02/10 21:12:00;;;;;;;4.47;1.07;;;5.60;99.90;;;;;;4997402;28;20265;-92
2022/02/10 21:14:28;;;;;;;1.70;0.53;;;5.60;99.90;;;;;;4988356;28;20283;-94
2022/02/10 21:16:54;;;;;;;0.70;0.70;;;5.60;99.90;;;;;;4979607;28;20511;-89
2022/02/10 21:19:23;;;;;;;1.80;1.67;;;5.70;99.90;;;;;;4996166;28;20282;-92
2022/02/10 21:21:49;;;;;;;10.33;1.40;;;5.60;99.90;;;;;;4989412;28;20224;-92
2022/02/10 21:24:22;;;;;;;0.20;0.20;;;5.60;99.90;;;;;;4984448;28;20602;-90
2022/02/10 21:27:15;;;;;;;3.60;2.03;;;5.60;99.90;;;;;;4990593;28;20230;-90
2022/02/10 21:29:37;;;;;;;0.97;0.97;;;5.60;99.90;;;;;;5001943;28;20298;-93
2022/02/10 21:32:03;;;;;;;0.50;0.50;;;5.60;99.90;;;;;;4998639;28;20725;-93
2022/02/10 21:34:34;;;;;;;1.03;1.03;;;5.60;99.90;;;;;;4992521;28;20199;-91
2022/02/10 21:37:04;;;;;;;1.70;1.60;;;5.70;99.90;;;;;;4985770;28;20219;-92
2022/02/10 22:16:50;;;;;;;4.73;0.93;;;5.70;99.90;;;;;;4996276;28;20187;-92
2022/02/10 22:19:21;;;;;;;0.70;0.70;;;5.80;99.90;;;;;;4989191;28;20586;-95
2022/02/10 22:21:56;;;;;;;1.07;1.03;;;5.90;99.90;;;;;;4992010;28;20219;-91
2022/02/10 22:24:23;;;;;;;0.83;0.83;;;6.00;99.90;;;;;;4996637;28;20246;-93
2022/02/10 22:26:52;;;;;;;2.37;0.93;;;6.00;99.90;;;;;;4997032;28;20438;-93
2022/02/10 22:29:26;;;;;;;4.13;0.80;;;6.00;99.90;;;;;;4999194;28;20215;-93
2022/02/10 22:34:28;;;;;;;0.93;0.93;;;6.00;99.90;;;;;;4979261;28;20203;-92
2022/02/10 22:37:00;;;;;;;0.50;0.50;;;6.10;99.90;;;;;;4994648;28;20231;-91
2022/02/10 22:39:34;;;;;;;0.53;0.47;;;6.10;99.90;;;;;;4991670;28;20224;-93
2022/02/10 22:42:00;;;;;;;1.60;0.90;;;6.20;99.90;;;;;;4993582;28;20224;-93
2022/02/10 22:44:27;;;;;;;1.07;0.67;;;6.20;99.90;;;;;;4993346;28;20235;-93
2022/02/10 22:46:53;;;;;;;0.40;0.40;;;6.30;99.90;;;;;;4996071;28;20219;-91
2022/02/10 22:49:19;;;;;;;3.97;1.77;;;6.30;99.90;;;;;;4973212;28;20195;-91
2022/02/10 22:51:45;;;;;;;5.07;1.60;;;6.30;99.90;;;;;;4996328;28;20219;-91
2022/02/10 22:54:15;;;;;;;4.73;1.17;;;6.30;99.90;;;;;;4981703;28;20224;-93
2022/02/10 22:56:43;;;;;;;1.40;1.30;;;6.30;99.90;;;;;;5000392;28;21084;-93
2022/02/10 22:59:09;;;;;;;0.93;0.87;;;6.30;99.90;;;;;;5000334;28;20219;-93
2022/02/10 23:01:36;;;;;;;2.40;1.47;;;6.20;99.90;;;;;;5003507;28;20202;-91
2022/02/10 23:04:03;;;;;;;3.57;1.87;;;6.30;99.90;;;;;;5000236;28;20243;-92
2022/02/10 23:06:29;;;;;;;0.90;0.90;;;6.20;99.90;;;;;;4999779;28;20219;-91
2022/02/10 23:08:56;;;;;;;3.87;1.57;;;6.20;99.90;;;;;;4998676;28;20242;-91
2022/02/10 23:11:27;;;;;;;5.00;0.63;;;6.20;99.90;;;;;;4999085;28;20297;-92
2022/02/10 23:13:58;;;;;;;0.77;0.57;;;6.20;99.90;;;;;;4997588;28;20195;-90
2022/02/10 23:16:25;;;;;;;1.07;0.70;;;6.20;99.90;;;;;;4990085;28;20278;-91
2022/02/10 23:18:51;;;;;;;0.63;0.63;;;6.10;99.90;;;;;;4989632;28;20243;-90
2022/02/10 23:21:18;;;;;;;4.17;1.83;;;6.10;99.90;;;;;;4988755;28;20216;-91
2022/02/10 23:23:48;;;;;;;5.20;1.43;;;6.10;99.90;;;;;;4998575;28;20227;-90
2022/02/10 23:26:21;;;;;;;0.73;0.57;;;6.10;99.90;;;;;;4996327;28;20233;-91
2022/02/10 23:28:50;;;;;;;6.20;0.67;;;6.10;99.90;;;;;;4998057;28;20187;-92
2022/02/10 23:31:19;;;;;;;0.50;0.50;;;6.20;99.90;;;;;;4998446;28;20183;-92
2022/02/10 23:33:51;;;;;;;1.53;1.43;;;6.20;99.90;;;;;;5000171;28;20232;-96
2022/02/10 23:39:10;;;;;;;3.73;1.20;;;6.20;99.90;;;;;;4999233;28;20262;-95
2022/02/10 23:44:13;;;;;;;2.23;0.90;;;6.20;99.90;;;;;;4993908;28;20231;-92
2022/02/10 23:46:40;;;;;;;1.90;1.70;;;6.20;99.90;;;;;;4994783;28;20231;-93
2022/02/10 23:49:06;;;;;;;0.57;0.57;;;6.30;99.90;;;;;;4994340;28;20274;-92
2022/02/10 23:51:39;;;;;;;1.30;1.30;;;6.30;99.90;;;;;;4995083;28;20224;-93
2022/02/10 23:54:05;;;;;;;0.63;0.63;;;6.40;99.90;;;;;;4995527;28;20220;-92
2022/02/10 23:56:37;;;;;;;17.57;0.70;;;6.50;99.90;;;;;;4999695;28;20274;-93
2022/02/10 23:59:18;;;;;;;2.60;1.03;;;6.50;99.90;;;;;;4996013;28;20307;-94
